| Date | Time | Temp. (oF) | Dew Point (oF) | Rel. Hum. (%) | Press. (in.) | Wind Dir. (deg.) | Wind Speed (mph) | Hourly Rainfall (i n.) |
|
|---|---|---|---|---|---|---|---|---|---|
| 1 | 11/11 | 24:00 | 61 | 46 | 58 | 30.05 | 290 | 2 | 0.00 |
| 2 | 11/10 | 23:00 | 63 | 46 | 55 | 30.04 | 10 | 1 | 0.00 |
| 3 | 11/10 | 22:00 | 63 | 46 | 55 | 30.05 | 330 | 2 | 0.00 |
| 4 | 11/10 | 21:00 | 61 | 46 | 58 | 30.04 | 330 | 1 | 0.00 |
| 5 | 11/10 | 20:00 | 63 | 46 | 55 | 30.04 | 330 | 0 | 0.00 |
| 6 | 11/10 | 19:00 | 64 | 47 | 55 | 30.05 | 330 | 2 | 0.00 |
| 7 | 11/10 | 18:00 | 63 | 46 | 56 | 30.04 | 170 | 0 | 0.00 |
| 8 | 11/10 | 17:00 | 65 | 48 | 56 | 30.04 | 190 | 1 | 0.00 |
| 9 | 11/10 | 16:00 | 69 | 48 | 49 | 30.05 | 310 | 1 | 0.00 |
| 10 | 11/10 | 15:00 | 70 | 48 | 47 | 30.06 | 280 | 7 | 0.00 |
| 11 | 11/10 | 14:00 | 70 | 48 | 47 | 30.07 | 290 | 10 | 0.00 |
| 12 | 11/10 | 13:00 | 71 | 49 | 47 | 30.08 | 230 | 4 | 0.00 |
| 13 | 11/10 | 12:00 | 70 | 49 | 49 | 30.10 | 270 | 10 | 0.00 |
| 14 | 11/10 | 11:00 | 71 | 50 | 48 | 30.12 | 300 | 10 | 0.00 |
| 15 | 11/10 | 10:00 | 66 | 52 | 62 | 30.12 | 150 | 2 | 0.00 |
| 16 | 11/10 | 09:00 | 61 | 49 | 67 | 30.10 | 190 | 9 | 0.00 |
| 17 | 11/10 | 08:00 | 55 | 47 | 77 | 30.10 | 110 | 2 | 0.00 |
| 18 | 11/10 | 07:00 | 52 | 45 | 79 | 30.09 | 130 | 0 | 0.00 |
| 19 | 11/10 | 06:00 | 52 | 45 | 79 | 30.08 | 130 | 1 | 0.00 |
| 20 | 11/10 | 05:00 | 51 | 45 | 81 | 30.08 | 130 | 0 | 0.00 |
| 21 | 11/10 | 04:00 | 50 | 44 | 81 | 30.09 | 130 | 0 | 0.00 |
| 22 | 11/10 | 03:00 | 52 | 45 | 78 | 30.10 | 130 | 0 | 0.00 |
| 23 | 11/10 | 02:00 | 53 | 45 | 77 | 30.10 | 130 | 0 | 0.00 |
| 24 | 11/10 | 01:00 | 51 | 44 | 77 | 30.10 | 130 | 0 | 0.00 |